createdAt,value
2022-10-02T00:01:11.691Z,15.00
2022-10-02T00:03:43.019Z,15.10
2022-10-02T00:06:15.494Z,15.10
2022-10-02T00:08:46.641Z,15.20
2022-10-02T00:11:19.365Z,15.30
2022-10-02T00:13:50.402Z,15.30
2022-10-02T00:16:26.943Z,15.50
2022-10-02T00:18:56.687Z,15.60
2022-10-02T00:21:36.298Z,15.60
2022-10-02T00:24:08.220Z,15.60
2022-10-02T00:26:41.018Z,15.60
2022-10-02T00:29:27.610Z,15.70
2022-10-02T00:32:02.950Z,15.70
2022-10-02T00:34:41.234Z,15.80
2022-10-02T00:37:15.924Z,15.70
2022-10-02T00:39:58.687Z,15.70
2022-10-02T00:42:54.348Z,15.60
2022-10-02T00:45:45.448Z,15.60
2022-10-02T00:48:29.369Z,15.70
2022-10-02T00:51:10.159Z,15.70
2022-10-02T00:53:46.613Z,15.80
2022-10-02T00:56:24.986Z,15.80
2022-10-02T00:59:20.250Z,15.80
2022-10-02T01:01:53.307Z,15.80
2022-10-02T01:04:27.944Z,15.80
2022-10-02T01:06:56.562Z,15.80
2022-10-02T01:09:25.537Z,15.70
2022-10-02T01:11:55.452Z,15.80
2022-10-02T01:14:33.532Z,15.70
2022-10-02T01:17:02.399Z,15.70
2022-10-02T01:19:38.233Z,15.80
2022-10-02T01:22:12.754Z,15.80
2022-10-02T01:24:49.814Z,15.80
2022-10-02T01:27:18.123Z,15.80
2022-10-02T01:29:48.906Z,15.80
2022-10-02T01:32:18.545Z,15.80
2022-10-02T01:34:47.871Z,15.80
2022-10-02T01:37:16.459Z,15.80
2022-10-02T01:39:44.889Z,15.80
2022-10-02T01:42:14.605Z,15.80
2022-10-02T01:44:43.863Z,15.80
2022-10-02T01:47:15.983Z,15.80
2022-10-02T01:49:57.230Z,15.80
2022-10-02T01:52:38.010Z,15.90
2022-10-02T01:55:32.335Z,15.80
2022-10-02T01:58:17.892Z,15.90
2022-10-02T02:00:54.799Z,15.90
2022-10-02T02:03:29.535Z,15.90
2022-10-02T02:06:06.324Z,15.80
2022-10-02T02:08:38.308Z,15.80
2022-10-02T02:11:13.224Z,15.90
2022-10-02T02:13:48.301Z,15.90
2022-10-02T02:16:24.959Z,15.90
2022-10-02T02:19:00.270Z,15.90
2022-10-02T02:21:32.267Z,15.90
2022-10-02T02:24:04.140Z,15.90
2022-10-02T02:26:33.705Z,16.00
2022-10-02T02:29:06.977Z,15.90
2022-10-02T02:31:40.047Z,15.90
2022-10-02T02:34:12.743Z,15.90
2022-10-02T02:36:44.968Z,15.90
2022-10-02T02:39:17.019Z,15.80
2022-10-02T02:41:50.824Z,15.80
2022-10-02T02:44:27.685Z,15.80
2022-10-02T02:47:06.430Z,15.80
2022-10-02T02:49:42.172Z,15.80
2022-10-02T02:52:15.188Z,15.70
2022-10-02T02:54:46.852Z,15.80
2022-10-02T02:57:17.132Z,15.80
2022-10-02T02:59:50.101Z,15.70
2022-10-02T03:02:18.385Z,15.70
2022-10-02T03:04:49.410Z,15.70
2022-10-02T03:07:18.504Z,15.80
2022-10-02T03:09:55.082Z,15.80
2022-10-02T03:12:33.333Z,15.80
2022-10-02T03:15:20.210Z,15.80
2022-10-02T03:18:03.594Z,15.80
2022-10-02T03:20:41.680Z,15.90
2022-10-02T03:23:18.842Z,15.90
2022-10-02T03:25:53.674Z,15.90
2022-10-02T03:28:50.590Z,15.90
2022-10-02T03:31:19.482Z,15.90
2022-10-02T03:33:48.354Z,16.00
2022-10-02T03:36:18.024Z,16.00
2022-10-02T03:38:53.436Z,16.00
2022-10-02T03:41:34.665Z,16.00
2022-10-02T03:44:03.351Z,16.00
2022-10-02T03:46:33.098Z,16.00
2022-10-02T03:49:01.580Z,16.00
2022-10-02T03:51:30.607Z,16.00
2022-10-02T03:53:58.855Z,16.00
2022-10-02T03:56:37.805Z,16.00
2022-10-02T03:59:13.747Z,16.00
2022-10-02T04:01:49.300Z,16.00
2022-10-02T04:04:22.750Z,16.00
2022-10-02T04:06:56.927Z,16.00
2022-10-02T04:09:30.864Z,16.00
2022-10-02T04:12:04.488Z,15.90
2022-10-02T04:14:41.463Z,16.00
2022-10-02T04:17:16.445Z,16.00
2022-10-02T04:19:48.471Z,16.00
2022-10-02T04:22:22.717Z,16.00
2022-10-02T04:24:56.082Z,16.00
2022-10-02T04:27:33.032Z,16.10
2022-10-02T04:30:05.408Z,16.10
2022-10-02T04:32:36.347Z,16.10
2022-10-02T04:35:13.645Z,16.00
2022-10-02T04:38:08.809Z,15.90
2022-10-02T04:40:56.278Z,16.00
2022-10-02T04:43:39.339Z,16.00
2022-10-02T04:46:24.314Z,16.10
2022-10-02T04:49:20.823Z,16.00
2022-10-02T04:52:19.146Z,16.10
2022-10-02T04:55:07.317Z,16.00
2022-10-02T04:57:58.349Z,16.00
2022-10-02T05:00:29.261Z,16.00
2022-10-02T05:03:27.795Z,16.00
2022-10-02T05:06:10.725Z,15.80
2022-10-02T05:09:07.537Z,15.70
2022-10-02T05:11:53.184Z,15.60
2022-10-02T05:14:44.295Z,15.50
2022-10-02T05:17:31.306Z,15.30
2022-10-02T05:20:23.131Z,15.30
2022-10-02T05:23:10.915Z,15.10
2022-10-02T05:26:13.441Z,15.10
2022-10-02T05:29:21.346Z,15.00
2022-10-02T05:32:03.681Z,15.00
2022-10-02T05:34:48.227Z,15.00
2022-10-02T05:37:31.611Z,14.90
2022-10-02T05:40:11.034Z,14.90
2022-10-02T05:42:45.918Z,15.20
2022-10-02T05:45:25.545Z,15.20
2022-10-02T05:48:02.387Z,15.20
2022-10-02T05:50:34.856Z,15.20
2022-10-02T05:53:08.933Z,15.00
2022-10-02T05:55:42.578Z,15.10
2022-10-02T05:58:15.672Z,15.10
2022-10-02T06:00:50.835Z,15.30
2022-10-02T06:03:26.733Z,15.70
2022-10-02T06:05:57.902Z,15.80
2022-10-02T06:08:32.994Z,15.90
2022-10-02T06:11:09.790Z,16.00
2022-10-02T06:13:43.912Z,16.10
2022-10-02T06:16:19.819Z,16.20
2022-10-02T06:18:53.495Z,16.20
2022-10-02T06:21:29.262Z,16.30
2022-10-02T06:24:01.464Z,16.30
2022-10-02T06:26:43.180Z,16.30
2022-10-02T06:29:20.619Z,16.40
2022-10-02T06:32:01.878Z,16.40
2022-10-02T06:34:30.159Z,16.50
2022-10-02T06:37:29.772Z,16.50
2022-10-02T06:40:14.944Z,16.60
2022-10-02T06:42:54.722Z,16.70
2022-10-02T06:45:32.361Z,16.70
2022-10-02T06:48:23.615Z,16.80
2022-10-02T06:50:58.366Z,16.80
2022-10-02T06:53:51.632Z,16.90
2022-10-02T06:56:43.571Z,16.90
2022-10-02T06:59:34.795Z,17.00
2022-10-02T07:02:12.889Z,17.00
2022-10-02T07:05:24.257Z,17.10
2022-10-02T07:08:03.454Z,17.10
2022-10-02T07:10:37.170Z,17.10
2022-10-02T07:13:27.302Z,17.10
2022-10-02T07:16:32.623Z,17.10
2022-10-02T07:19:14.843Z,17.20
2022-10-02T07:21:54.230Z,17.20
2022-10-02T07:24:43.042Z,17.30
2022-10-02T07:27:19.696Z,17.30
2022-10-02T07:29:56.636Z,17.50
2022-10-02T07:32:48.848Z,17.80
2022-10-02T07:35:44.353Z,17.80
2022-10-02T07:38:57.326Z,17.90
2022-10-02T07:42:01.293Z,18.00
2022-10-02T07:44:56.081Z,18.10
2022-10-02T07:47:44.353Z,18.10
2022-10-02T07:50:16.811Z,18.10
2022-10-02T07:52:56.610Z,18.20
2022-10-02T07:55:26.070Z,18.20
2022-10-02T07:58:01.604Z,18.20
2022-10-02T08:00:34.593Z,18.30
2022-10-02T08:03:05.842Z,18.40
2022-10-02T08:05:41.172Z,18.30
2022-10-02T08:08:17.564Z,18.30
2022-10-02T08:10:52.372Z,18.40
2022-10-02T08:13:24.626Z,18.40
2022-10-02T08:15:56.258Z,18.30
2022-10-02T08:18:34.974Z,18.40
2022-10-02T08:21:10.569Z,18.40
2022-10-02T08:23:44.047Z,18.40
2022-10-02T08:26:17.963Z,18.50
2022-10-02T08:28:52.934Z,18.50
2022-10-02T08:31:21.168Z,18.50
2022-10-02T08:33:49.301Z,18.60
2022-10-02T08:36:48.495Z,18.70
2022-10-02T08:39:58.780Z,18.70
2022-10-02T08:43:11.724Z,18.80
2022-10-02T08:46:10.701Z,18.90
2022-10-02T08:49:11.399Z,18.90
2022-10-02T08:52:10.850Z,19.00
2022-10-02T08:55:05.628Z,19.10
2022-10-02T08:58:21.441Z,19.10
2022-10-02T09:00:58.947Z,18.90
2022-10-02T09:04:14.918Z,18.80
2022-10-02T09:07:27.957Z,18.70
2022-10-02T09:10:29.917Z,18.50
2022-10-02T09:13:50.729Z,18.30
2022-10-02T09:16:29.819Z,18.00
2022-10-02T09:19:03.060Z,18.10
2022-10-02T09:21:52.205Z,18.30
2022-10-02T09:24:55.335Z,18.30
2022-10-02T09:27:50.299Z,18.40
2022-10-02T09:30:34.018Z,18.30
2022-10-02T09:33:36.155Z,18.40
2022-10-02T09:36:49.367Z,18.30
2022-10-02T09:39:53.348Z,18.30
2022-10-02T09:42:58.423Z,18.30
2022-10-02T09:46:07.283Z,18.10
2022-10-02T09:49:17.840Z,18.00
2022-10-02T09:52:11.835Z,17.90
2022-10-02T09:55:14.199Z,18.00
2022-10-02T09:58:24.410Z,17.90
2022-10-02T10:01:19.295Z,17.80
2022-10-02T10:04:47.826Z,17.80
2022-10-02T10:07:51.103Z,17.80
2022-10-02T10:10:45.828Z,17.80
2022-10-02T10:13:45.309Z,17.80
2022-10-02T10:16:54.791Z,17.80
2022-10-02T10:20:06.359Z,17.80
2022-10-02T10:23:03.617Z,17.60
2022-10-02T10:25:59.420Z,17.70
2022-10-02T10:29:09.220Z,17.60
2022-10-02T10:32:30.990Z,17.80
2022-10-02T10:35:41.131Z,17.70
2022-10-02T10:38:40.873Z,17.80
2022-10-02T10:41:54.382Z,17.80
2022-10-02T10:44:56.423Z,17.80
2022-10-02T10:47:49.118Z,17.90
2022-10-02T10:50:39.135Z,17.90
2022-10-02T10:53:21.394Z,17.90
2022-10-02T10:56:29.061Z,17.90
2022-10-02T10:59:25.461Z,17.90
2022-10-02T11:02:13.964Z,17.80
2022-10-02T11:04:59.713Z,17.90
2022-10-02T11:07:44.752Z,18.00
2022-10-02T11:10:28.424Z,17.90
2022-10-02T11:13:18.338Z,18.00
2022-10-02T11:16:34.050Z,18.10
2022-10-02T11:19:27.285Z,18.30
2022-10-02T11:22:20.868Z,18.40
2022-10-02T11:25:25.806Z,18.70
2022-10-02T11:28:22.364Z,18.90
2022-10-02T11:31:01.967Z,19.10
2022-10-02T11:33:57.682Z,18.90
2022-10-02T11:36:42.874Z,18.80
2022-10-02T11:39:33.794Z,18.90
2022-10-02T11:42:30.177Z,19.10
2022-10-02T11:45:33.576Z,19.20
2022-10-02T11:48:24.109Z,19.00
2022-10-02T11:51:20.917Z,19.10
2022-10-02T11:54:33.994Z,19.00
2022-10-02T11:57:24.409Z,18.80
2022-10-02T12:00:31.202Z,18.90
2022-10-02T12:03:03.278Z,19.30
2022-10-02T12:05:55.762Z,19.30
2022-10-02T12:08:34.946Z,19.40
2022-10-02T12:11:14.164Z,19.70
2022-10-02T12:14:08.951Z,19.80
2022-10-02T12:16:51.723Z,19.80
2022-10-02T12:19:30.850Z,20.10
2022-10-02T12:22:30.534Z,19.90
2022-10-02T12:25:32.124Z,20.40
2022-10-02T12:28:10.635Z,20.80
2022-10-02T12:30:45.596Z,21.00
2022-10-02T12:33:33.340Z,21.10
2022-10-02T12:36:34.407Z,20.80
2022-10-02T12:39:18.796Z,20.60
2022-10-02T12:42:11.662Z,20.30
2022-10-02T12:44:51.544Z,20.10
2022-10-02T12:48:02.888Z,19.90
2022-10-02T12:51:06.057Z,20.00
2022-10-02T12:54:10.200Z,20.00
2022-10-02T12:57:54.628Z,20.30
2022-10-02T13:00:25.546Z,20.60
2022-10-02T13:03:36.756Z,20.50
2022-10-02T13:06:27.067Z,20.30
2022-10-02T13:09:07.533Z,19.90
2022-10-02T13:11:53.647Z,19.80
2022-10-02T13:14:40.177Z,19.70
2022-10-02T13:17:24.202Z,19.80
2022-10-02T13:20:09.154Z,20.10
2022-10-02T13:22:43.866Z,20.20
2022-10-02T13:25:34.464Z,20.40
2022-10-02T13:28:19.332Z,20.30
2022-10-02T13:30:58.086Z,20.30
2022-10-02T13:33:55.487Z,20.50
2022-10-02T13:36:36.072Z,20.70
2022-10-02T13:39:21.051Z,20.70
2022-10-02T13:42:07.804Z,20.30
2022-10-02T13:44:43.794Z,20.40
2022-10-02T13:47:27.843Z,20.30
2022-10-02T13:50:16.720Z,20.20
2022-10-02T13:53:07.407Z,20.20
2022-10-02T13:55:44.127Z,20.10
2022-10-02T13:58:38.902Z,20.00
2022-10-02T14:01:26.520Z,20.00
2022-10-02T14:04:10.886Z,20.00
2022-10-02T14:06:43.774Z,19.70
2022-10-02T14:09:24.431Z,19.60
2022-10-02T14:12:08.586Z,19.60
2022-10-02T14:15:04.403Z,19.80
2022-10-02T14:17:38.808Z,20.00
2022-10-02T14:20:32.338Z,20.10
2022-10-02T14:23:17.365Z,19.90
2022-10-02T14:26:04.153Z,19.70
2022-10-02T14:28:55.821Z,19.40
2022-10-02T14:31:38.293Z,19.20
2022-10-02T14:34:32.576Z,18.80
2022-10-02T14:37:26.856Z,18.60
2022-10-02T14:39:58.419Z,18.40
2022-10-02T14:42:45.314Z,18.30
2022-10-02T14:45:58.434Z,18.20
2022-10-02T14:49:01.632Z,18.30
2022-10-02T14:51:47.431Z,18.20
2022-10-02T14:54:30.098Z,18.20
2022-10-02T14:57:19.465Z,18.20
2022-10-02T15:00:03.868Z,18.00
2022-10-02T15:03:01.464Z,17.90
2022-10-02T15:05:47.731Z,17.90
2022-10-02T15:08:19.766Z,17.90
2022-10-02T15:10:50.197Z,17.80
2022-10-02T15:13:28.620Z,17.80
2022-10-02T15:16:21.223Z,17.40
2022-10-02T15:18:57.470Z,17.50
2022-10-02T15:21:30.781Z,17.40
2022-10-02T15:24:00.060Z,17.30
2022-10-02T15:26:50.124Z,17.40
2022-10-02T15:29:32.577Z,17.40
2022-10-02T15:32:31.345Z,17.50
2022-10-02T15:35:08.501Z,17.60
2022-10-02T15:37:47.488Z,17.50
2022-10-02T15:40:36.823Z,17.60
2022-10-02T15:43:28.885Z,17.60
2022-10-02T15:46:06.781Z,17.60
2022-10-02T15:49:03.349Z,17.60
2022-10-02T15:51:46.165Z,17.50
2022-10-02T15:54:30.221Z,17.60
2022-10-02T15:57:26.665Z,17.50
2022-10-02T16:00:10.706Z,17.50
2022-10-02T16:02:58.099Z,17.60
2022-10-02T16:05:52.382Z,17.40
2022-10-02T16:08:59.071Z,17.30
2022-10-02T16:12:02.886Z,17.30
2022-10-02T16:14:46.979Z,17.30
2022-10-02T16:17:32.903Z,17.30
2022-10-02T16:20:16.581Z,17.30
2022-10-02T16:22:59.646Z,17.30
2022-10-02T16:26:03.481Z,17.10
2022-10-02T16:28:43.446Z,17.00
2022-10-02T16:31:36.547Z,16.90
2022-10-02T16:34:15.855Z,16.90
2022-10-02T16:36:52.685Z,16.80
2022-10-02T16:39:42.338Z,16.80
2022-10-02T16:42:22.051Z,16.80
2022-10-02T16:45:20.558Z,16.80
2022-10-02T16:47:51.850Z,16.80
2022-10-02T16:50:25.639Z,16.70
2022-10-02T16:52:59.613Z,16.60
2022-10-02T16:55:34.843Z,16.60
2022-10-02T16:58:13.367Z,16.70
2022-10-02T17:00:53.571Z,16.60
2022-10-02T17:03:29.460Z,16.60
2022-10-02T17:06:07.436Z,16.60
2022-10-02T17:08:44.497Z,16.50
2022-10-02T17:11:27.094Z,16.50
2022-10-02T17:14:07.133Z,16.50
2022-10-02T17:16:41.445Z,16.60
2022-10-02T17:19:26.291Z,16.50
2022-10-02T17:21:58.615Z,16.50
2022-10-02T17:24:35.908Z,16.50
2022-10-02T17:27:17.133Z,16.60
2022-10-02T17:29:55.183Z,16.50
2022-10-02T17:32:39.398Z,16.50
2022-10-02T17:35:17.055Z,16.50
2022-10-02T17:38:24.285Z,16.50
2022-10-02T17:41:02.591Z,16.60
2022-10-02T17:43:39.762Z,16.60
2022-10-02T17:46:31.994Z,16.70
2022-10-02T17:49:07.393Z,16.80
2022-10-02T17:51:52.776Z,16.70
2022-10-02T17:55:01.817Z,16.70
2022-10-02T17:57:42.706Z,16.70
2022-10-02T18:00:18.683Z,16.80
2022-10-02T18:03:26.444Z,16.80
2022-10-02T18:06:05.994Z,16.80
2022-10-02T18:08:57.013Z,16.80
2022-10-02T18:11:35.587Z,16.80
2022-10-02T18:14:16.725Z,16.80
2022-10-02T18:17:06.465Z,16.80
2022-10-02T18:19:48.050Z,16.70
2022-10-02T18:22:43.094Z,16.70
2022-10-02T18:25:32.631Z,16.70
2022-10-02T18:28:16.587Z,16.70
2022-10-02T18:30:50.166Z,16.70
2022-10-02T18:34:07.273Z,16.70
2022-10-02T18:36:56.218Z,16.70
2022-10-02T18:39:34.050Z,16.80
2022-10-02T18:42:29.934Z,16.80
2022-10-02T18:45:09.288Z,16.70
2022-10-02T18:47:55.805Z,16.50
2022-10-02T18:50:39.691Z,16.40
2022-10-02T18:53:33.395Z,16.20
2022-10-02T18:56:08.499Z,16.00
2022-10-02T18:59:02.148Z,16.00
2022-10-02T19:01:51.613Z,15.80
2022-10-02T19:04:53.298Z,15.30
2022-10-02T19:07:29.466Z,14.90
2022-10-02T19:10:31.585Z,14.50
2022-10-02T19:13:17.594Z,14.30
2022-10-02T19:15:48.833Z,14.30
2022-10-02T19:18:19.785Z,14.30
2022-10-02T19:20:55.847Z,14.30
2022-10-02T19:23:32.899Z,14.20
2022-10-02T19:26:07.078Z,14.30
2022-10-02T19:28:45.526Z,14.30
2022-10-02T19:31:19.581Z,14.40
2022-10-02T19:33:51.941Z,14.30
2022-10-02T19:36:25.246Z,14.30
2022-10-02T19:38:58.256Z,14.30
2022-10-02T19:41:26.959Z,14.30
2022-10-02T19:43:59.648Z,14.30
2022-10-02T19:46:37.268Z,14.30
2022-10-02T19:49:07.276Z,14.30
2022-10-02T19:51:44.816Z,14.30
2022-10-02T19:54:20.373Z,14.20
2022-10-02T19:56:50.364Z,14.20
2022-10-02T19:59:21.125Z,14.10
2022-10-02T20:01:53.474Z,14.10
2022-10-02T20:04:23.308Z,14.10
2022-10-02T20:06:56.696Z,14.20
2022-10-02T20:09:34.275Z,14.30
2022-10-02T20:12:08.307Z,14.30
2022-10-02T20:14:42.288Z,14.30
2022-10-02T20:17:10.906Z,14.30
2022-10-02T20:19:43.418Z,14.30
2022-10-02T20:22:31.539Z,14.30
2022-10-02T20:25:04.877Z,14.20
2022-10-02T20:27:45.291Z,14.20
2022-10-02T20:30:16.865Z,14.10
2022-10-02T20:32:51.232Z,14.00
2022-10-02T20:35:24.792Z,14.10
2022-10-02T20:37:55.256Z,14.20
2022-10-02T20:40:28.644Z,14.10
2022-10-02T20:43:02.077Z,14.20
2022-10-02T20:45:36.990Z,14.20
2022-10-02T20:49:03.121Z,14.20
2022-10-02T20:51:44.995Z,14.10
2022-10-02T20:54:33.102Z,14.00
2022-10-02T20:57:56.405Z,14.00
2022-10-02T21:00:25.090Z,14.10
2022-10-02T21:03:23.380Z,14.00
2022-10-02T21:06:13.780Z,14.10
2022-10-02T21:09:13.516Z,14.00
2022-10-02T21:12:05.951Z,14.00
2022-10-02T21:14:53.934Z,14.10
2022-10-02T21:17:46.120Z,14.10
2022-10-02T21:20:51.794Z,14.10
2022-10-02T21:23:37.328Z,14.10
2022-10-02T21:26:45.214Z,14.20
2022-10-02T21:29:34.744Z,14.20
2022-10-02T21:32:25.090Z,14.10
2022-10-02T21:35:08.272Z,14.30
2022-10-02T21:37:48.563Z,14.20
2022-10-02T21:40:50.569Z,14.20
2022-10-02T21:44:00.262Z,14.20
2022-10-02T21:46:45.100Z,14.10
2022-10-02T21:50:01.753Z,14.10
2022-10-02T21:53:03.250Z,14.10
2022-10-02T21:56:00.124Z,14.10
2022-10-02T21:59:06.295Z,14.10
2022-10-02T22:02:13.125Z,14.10
2022-10-02T22:05:10.597Z,14.10
2022-10-02T22:07:46.376Z,14.10
2022-10-02T22:10:23.315Z,14.00
2022-10-02T22:13:20.338Z,14.10
2022-10-02T22:15:55.542Z,14.00
2022-10-02T22:18:33.352Z,14.00
2022-10-02T22:21:23.750Z,14.00
2022-10-02T22:24:09.077Z,14.10
2022-10-02T22:26:54.518Z,14.00
2022-10-02T22:29:31.812Z,14.00
2022-10-02T22:32:34.508Z,14.00
2022-10-02T22:35:11.775Z,14.10
2022-10-02T22:37:59.776Z,14.00
2022-10-02T22:40:31.370Z,14.00
2022-10-02T22:43:02.608Z,13.90
2022-10-02T22:45:35.787Z,13.90
2022-10-02T22:48:10.083Z,13.90
2022-10-02T22:50:48.062Z,14.00
2022-10-02T22:53:24.495Z,14.00
2022-10-02T22:55:55.369Z,13.90
2022-10-02T22:58:34.202Z,13.90
2022-10-02T23:01:11.072Z,13.90
2022-10-02T23:03:43.957Z,13.90
2022-10-02T23:06:21.432Z,13.90
2022-10-02T23:09:00.214Z,13.90
2022-10-02T23:11:32.295Z,13.90
2022-10-02T23:14:03.665Z,13.90
2022-10-02T23:16:39.556Z,13.90
2022-10-02T23:19:14.177Z,13.90
2022-10-02T23:21:48.794Z,13.90
2022-10-02T23:24:26.696Z,13.90
2022-10-02T23:27:04.528Z,13.90
2022-10-02T23:29:42.869Z,13.90
2022-10-02T23:32:21.774Z,13.90
2022-10-02T23:34:54.496Z,13.90
2022-10-02T23:37:27.283Z,13.90
2022-10-02T23:40:15.748Z,13.90
2022-10-02T23:42:50.083Z,13.90
2022-10-02T23:45:24.213Z,13.80
2022-10-02T23:48:00.104Z,13.80
2022-10-02T23:50:38.887Z,13.80
2022-10-02T23:53:37.042Z,13.80
2022-10-02T23:56:15.764Z,13.80
2022-10-02T23:59:00.938Z,13.80
